sensor_id;sensor_type;location;lat;lon;timestamp;temperature;humidity
3262;DHT22;1643;47.746;9.000;2023-04-25T00:01:56;10.60;99.90
3262;DHT22;1643;47.746;9.000;2023-04-25T00:04:22;10.70;99.90
3262;DHT22;1643;47.746;9.000;2023-04-25T00:06:48;10.70;99.90
3262;DHT22;1643;47.746;9.000;2023-04-25T00:09:14;10.60;99.90
3262;DHT22;1643;47.746;9.000;2023-04-25T00:11:40;10.70;99.90
3262;DHT22;1643;47.746;9.000;2023-04-25T00:14:06;10.70;99.90
3262;DHT22;1643;47.746;9.000;2023-04-25T00:16:32;10.80;99.90
3262;DHT22;1643;47.746;9.000;2023-04-25T00:19:01;10.70;99.90
3262;DHT22;1643;47.746;9.000;2023-04-25T00:21:28;10.70;99.90
3262;DHT22;1643;47.746;9.000;2023-04-25T00:23:55;10.70;99.90
3262;DHT22;1643;47.746;9.000;2023-04-25T00:26:21;10.80;99.90
3262;DHT22;1643;47.746;9.000;2023-04-25T00:28:47;10.70;99.90
3262;DHT22;1643;47.746;9.000;2023-04-25T00:31:13;10.70;99.90
3262;DHT22;1643;47.746;9.000;2023-04-25T00:33:38;10.80;99.90
3262;DHT22;1643;47.746;9.000;2023-04-25T00:36:05;10.70;99.90
3262;DHT22;1643;47.746;9.000;2023-04-25T00:38:30;10.80;99.90
3262;DHT22;1643;47.746;9.000;2023-04-25T00:40:56;10.80;99.90
3262;DHT22;1643;47.746;9.000;2023-04-25T00:43:26;10.80;99.90
3262;DHT22;1643;47.746;9.000;2023-04-25T00:45:52;10.70;99.90
3262;DHT22;1643;47.746;9.000;2023-04-25T00:48:19;10.70;99.90
3262;DHT22;1643;47.746;9.000;2023-04-25T00:50:54;10.70;99.90
3262;DHT22;1643;47.746;9.000;2023-04-25T00:53:21;10.60;99.90
3262;DHT22;1643;47.746;9.000;2023-04-25T00:55:47;10.60;99.90
3262;DHT22;1643;47.746;9.000;2023-04-25T00:58:19;10.60;99.90
3262;DHT22;1643;47.746;9.000;2023-04-25T01:00:46;10.60;99.90
3262;DHT22;1643;47.746;9.000;2023-04-25T01:03:13;10.60;99.90
3262;DHT22;1643;47.746;9.000;2023-04-25T01:05:40;10.50;99.90
3262;DHT22;1643;47.746;9.000;2023-04-25T01:08:07;10.50;99.90
3262;DHT22;1643;47.746;9.000;2023-04-25T01:10:32;10.40;99.90
3262;DHT22;1643;47.746;9.000;2023-04-25T01:12:58;10.40;99.90
3262;DHT22;1643;47.746;9.000;2023-04-25T01:15:24;10.40;99.90
3262;DHT22;1643;47.746;9.000;2023-04-25T01:17:49;10.30;99.90
3262;DHT22;1643;47.746;9.000;2023-04-25T01:20:15;10.20;99.90
3262;DHT22;1643;47.746;9.000;2023-04-25T01:22:42;10.10;99.90
3262;DHT22;1643;47.746;9.000;2023-04-25T01:25:08;10.10;99.90
3262;DHT22;1643;47.746;9.000;2023-04-25T01:27:36;10.10;99.90
3262;DHT22;1643;47.746;9.000;2023-04-25T01:30:02;10.20;99.90
3262;DHT22;1643;47.746;9.000;2023-04-25T01:32:29;10.10;99.90
3262;DHT22;1643;47.746;9.000;2023-04-25T01:34:57;10.10;99.90
3262;DHT22;1643;47.746;9.000;2023-04-25T01:37:22;10.20;99.90
3262;DHT22;1643;47.746;9.000;2023-04-25T01:39:48;10.20;99.90
3262;DHT22;1643;47.746;9.000;2023-04-25T01:42:15;10.20;99.90
3262;DHT22;1643;47.746;9.000;2023-04-25T01:44:41;10.20;99.90
3262;DHT22;1643;47.746;9.000;2023-04-25T01:47:07;10.20;99.90
3262;DHT22;1643;47.746;9.000;2023-04-25T01:49:33;10.20;99.90
3262;DHT22;1643;47.746;9.000;2023-04-25T01:51:58;10.20;99.90
3262;DHT22;1643;47.746;9.000;2023-04-25T01:54:24;10.20;99.90
3262;DHT22;1643;47.746;9.000;2023-04-25T01:56:50;10.20;99.90
3262;DHT22;1643;47.746;9.000;2023-04-25T01:59:17;10.10;99.90
3262;DHT22;1643;47.746;9.000;2023-04-25T02:01:43;10.10;99.90
3262;DHT22;1643;47.746;9.000;2023-04-25T02:04:09;10.10;99.90
3262;DHT22;1643;47.746;9.000;2023-04-25T02:06:34;10.10;99.90
3262;DHT22;1643;47.746;9.000;2023-04-25T02:09:00;10.00;99.90
3262;DHT22;1643;47.746;9.000;2023-04-25T02:11:25;10.00;99.90
3262;DHT22;1643;47.746;9.000;2023-04-25T02:13:51;10.00;99.90
3262;DHT22;1643;47.746;9.000;2023-04-25T02:16:17;9.90;99.90
3262;DHT22;1643;47.746;9.000;2023-04-25T02:18:43;9.90;99.90
3262;DHT22;1643;47.746;9.000;2023-04-25T02:21:10;9.90;99.90
3262;DHT22;1643;47.746;9.000;2023-04-25T02:23:36;9.90;99.90
3262;DHT22;1643;47.746;9.000;2023-04-25T02:26:02;9.90;99.90
3262;DHT22;1643;47.746;9.000;2023-04-25T02:28:28;9.80;99.90
3262;DHT22;1643;47.746;9.000;2023-04-25T02:30:53;9.80;99.90
3262;DHT22;1643;47.746;9.000;2023-04-25T02:33:19;9.70;99.90
3262;DHT22;1643;47.746;9.000;2023-04-25T02:35:46;9.70;99.90
3262;DHT22;1643;47.746;9.000;2023-04-25T02:38:12;9.70;99.90
3262;DHT22;1643;47.746;9.000;2023-04-25T02:40:37;9.70;99.90
3262;DHT22;1643;47.746;9.000;2023-04-25T02:43:03;9.70;99.90
3262;DHT22;1643;47.746;9.000;2023-04-25T02:45:28;9.60;99.90
3262;DHT22;1643;47.746;9.000;2023-04-25T02:47:54;9.60;99.90
3262;DHT22;1643;47.746;9.000;2023-04-25T02:50:20;9.60;99.90
3262;DHT22;1643;47.746;9.000;2023-04-25T02:52:45;9.60;99.90
3262;DHT22;1643;47.746;9.000;2023-04-25T02:55:12;9.60;99.90
3262;DHT22;1643;47.746;9.000;2023-04-25T02:57:38;9.60;99.90
3262;DHT22;1643;47.746;9.000;2023-04-25T03:00:04;9.60;99.90
3262;DHT22;1643;47.746;9.000;2023-04-25T03:02:31;9.50;99.90
3262;DHT22;1643;47.746;9.000;2023-04-25T03:04:56;9.50;99.90
3262;DHT22;1643;47.746;9.000;2023-04-25T03:07:22;9.50;99.90
3262;DHT22;1643;47.746;9.000;2023-04-25T03:09:47;9.50;99.90
3262;DHT22;1643;47.746;9.000;2023-04-25T03:12:13;9.50;99.90
3262;DHT22;1643;47.746;9.000;2023-04-25T03:14:38;9.40;99.90
3262;DHT22;1643;47.746;9.000;2023-04-25T03:17:04;9.40;99.90
3262;DHT22;1643;47.746;9.000;2023-04-25T03:19:30;9.30;99.90
3262;DHT22;1643;47.746;9.000;2023-04-25T03:21:55;9.30;99.90
3262;DHT22;1643;47.746;9.000;2023-04-25T03:24:21;9.20;99.90
3262;DHT22;1643;47.746;9.000;2023-04-25T03:26:47;9.10;99.90
3262;DHT22;1643;47.746;9.000;2023-04-25T03:29:12;9.10;99.90
3262;DHT22;1643;47.746;9.000;2023-04-25T03:31:38;9.00;99.90
3262;DHT22;1643;47.746;9.000;2023-04-25T03:34:04;9.00;99.90
3262;DHT22;1643;47.746;9.000;2023-04-25T03:36:29;8.90;99.90
3262;DHT22;1643;47.746;9.000;2023-04-25T03:38:55;8.90;99.90
3262;DHT22;1643;47.746;9.000;2023-04-25T03:41:21;8.90;99.90
3262;DHT22;1643;47.746;9.000;2023-04-25T03:43:47;8.90;99.90
3262;DHT22;1643;47.746;9.000;2023-04-25T03:46:12;8.90;99.90
3262;DHT22;1643;47.746;9.000;2023-04-25T03:48:38;8.80;99.90
3262;DHT22;1643;47.746;9.000;2023-04-25T03:51:03;8.80;99.90
3262;DHT22;1643;47.746;9.000;2023-04-25T03:53:29;8.80;99.90
3262;DHT22;1643;47.746;9.000;2023-04-25T03:55:55;8.70;99.90
3262;DHT22;1643;47.746;9.000;2023-04-25T03:58:20;8.70;99.90
3262;DHT22;1643;47.746;9.000;2023-04-25T04:00:48;8.70;99.90
3262;DHT22;1643;47.746;9.000;2023-04-25T04:03:13;8.70;99.90
3262;DHT22;1643;47.746;9.000;2023-04-25T04:05:39;8.70;99.90
3262;DHT22;1643;47.746;9.000;2023-04-25T04:08:06;8.70;99.90
3262;DHT22;1643;47.746;9.000;2023-04-25T04:10:31;8.70;99.90
3262;DHT22;1643;47.746;9.000;2023-04-25T04:12:57;8.70;99.90
3262;DHT22;1643;47.746;9.000;2023-04-25T04:15:22;8.70;99.90
3262;DHT22;1643;47.746;9.000;2023-04-25T04:17:48;8.70;99.90
3262;DHT22;1643;47.746;9.000;2023-04-25T04:20:14;8.70;99.90
3262;DHT22;1643;47.746;9.000;2023-04-25T04:22:40;8.70;99.90
3262;DHT22;1643;47.746;9.000;2023-04-25T04:25:05;8.60;99.90
3262;DHT22;1643;47.746;9.000;2023-04-25T04:27:32;8.50;99.90
3262;DHT22;1643;47.746;9.000;2023-04-25T04:29:57;8.50;99.90
3262;DHT22;1643;47.746;9.000;2023-04-25T04:32:23;8.50;99.90
3262;DHT22;1643;47.746;9.000;2023-04-25T04:34:49;8.50;99.90
3262;DHT22;1643;47.746;9.000;2023-04-25T04:37:15;8.60;99.90
3262;DHT22;1643;47.746;9.000;2023-04-25T04:39:40;8.50;99.90
3262;DHT22;1643;47.746;9.000;2023-04-25T04:42:06;8.50;99.90
3262;DHT22;1643;47.746;9.000;2023-04-25T04:44:32;8.60;99.90
3262;DHT22;1643;47.746;9.000;2023-04-25T04:46:59;8.60;99.90
3262;DHT22;1643;47.746;9.000;2023-04-25T04:49:24;8.60;99.90
3262;DHT22;1643;47.746;9.000;2023-04-25T04:51:50;8.70;99.90
3262;DHT22;1643;47.746;9.000;2023-04-25T04:54:16;8.70;99.90
3262;DHT22;1643;47.746;9.000;2023-04-25T04:56:41;8.80;99.90
3262;DHT22;1643;47.746;9.000;2023-04-25T04:59:07;8.80;99.90
3262;DHT22;1643;47.746;9.000;2023-04-25T05:01:33;8.80;99.90
3262;DHT22;1643;47.746;9.000;2023-04-25T05:04:01;8.80;99.90
3262;DHT22;1643;47.746;9.000;2023-04-25T05:06:28;8.80;99.90
3262;DHT22;1643;47.746;9.000;2023-04-25T05:08:57;8.90;99.90
3262;DHT22;1643;47.746;9.000;2023-04-25T05:11:24;8.80;99.90
3262;DHT22;1643;47.746;9.000;2023-04-25T05:13:51;8.80;99.90
3262;DHT22;1643;47.746;9.000;2023-04-25T05:16:17;8.90;99.90
3262;DHT22;1643;47.746;9.000;2023-04-25T05:18:43;8.90;99.90
3262;DHT22;1643;47.746;9.000;2023-04-25T05:21:08;8.90;99.90
3262;DHT22;1643;47.746;9.000;2023-04-25T05:23:34;8.90;99.90
3262;DHT22;1643;47.746;9.000;2023-04-25T05:26:00;9.00;99.90
3262;DHT22;1643;47.746;9.000;2023-04-25T05:28:25;9.00;99.90
3262;DHT22;1643;47.746;9.000;2023-04-25T05:30:51;9.10;99.90
3262;DHT22;1643;47.746;9.000;2023-04-25T05:33:18;9.10;99.90
3262;DHT22;1643;47.746;9.000;2023-04-25T05:35:44;9.10;99.90
3262;DHT22;1643;47.746;9.000;2023-04-25T05:38:09;9.10;99.90
3262;DHT22;1643;47.746;9.000;2023-04-25T05:40:35;9.20;99.90
3262;DHT22;1643;47.746;9.000;2023-04-25T05:43:01;9.20;99.90
3262;DHT22;1643;47.746;9.000;2023-04-25T05:45:27;9.30;99.90
3262;DHT22;1643;47.746;9.000;2023-04-25T05:47:52;9.30;99.90
3262;DHT22;1643;47.746;9.000;2023-04-25T05:50:18;9.40;99.90
3262;DHT22;1643;47.746;9.000;2023-04-25T05:52:43;9.40;99.90
3262;DHT22;1643;47.746;9.000;2023-04-25T05:55:09;9.40;99.90
3262;DHT22;1643;47.746;9.000;2023-04-25T05:57:35;9.40;99.90
3262;DHT22;1643;47.746;9.000;2023-04-25T06:00:01;9.40;99.90
3262;DHT22;1643;47.746;9.000;2023-04-25T06:02:27;9.40;99.90
3262;DHT22;1643;47.746;9.000;2023-04-25T06:04:53;9.50;99.90
3262;DHT22;1643;47.746;9.000;2023-04-25T06:07:19;9.60;99.90
3262;DHT22;1643;47.746;9.000;2023-04-25T06:09:45;9.70;99.90
3262;DHT22;1643;47.746;9.000;2023-04-25T06:12:11;9.70;99.90
3262;DHT22;1643;47.746;9.000;2023-04-25T06:14:36;9.70;99.90
3262;DHT22;1643;47.746;9.000;2023-04-25T06:17:03;9.80;99.90
3262;DHT22;1643;47.746;9.000;2023-04-25T06:19:37;9.90;99.90
3262;DHT22;1643;47.746;9.000;2023-04-25T06:22:03;10.00;99.90
3262;DHT22;1643;47.746;9.000;2023-04-25T06:24:29;10.00;99.90
3262;DHT22;1643;47.746;9.000;2023-04-25T06:26:54;10.10;99.90
3262;DHT22;1643;47.746;9.000;2023-04-25T06:29:20;10.10;99.90
3262;DHT22;1643;47.746;9.000;2023-04-25T06:31:46;10.20;99.90
3262;DHT22;1643;47.746;9.000;2023-04-25T06:34:12;10.20;99.90
3262;DHT22;1643;47.746;9.000;2023-04-25T06:36:37;10.20;99.90
3262;DHT22;1643;47.746;9.000;2023-04-25T06:39:03;10.20;99.90
3262;DHT22;1643;47.746;9.000;2023-04-25T06:41:29;10.20;99.90
3262;DHT22;1643;47.746;9.000;2023-04-25T06:43:54;10.30;99.90
3262;DHT22;1643;47.746;9.000;2023-04-25T06:46:20;10.30;99.90
3262;DHT22;1643;47.746;9.000;2023-04-25T06:48:45;10.30;99.90
3262;DHT22;1643;47.746;9.000;2023-04-25T06:51:11;10.30;99.90
3262;DHT22;1643;47.746;9.000;2023-04-25T06:53:38;10.40;99.90
3262;DHT22;1643;47.746;9.000;2023-04-25T06:56:04;10.40;99.90
3262;DHT22;1643;47.746;9.000;2023-04-25T06:58:30;10.40;99.90
3262;DHT22;1643;47.746;9.000;2023-04-25T07:00:56;10.30;99.90
3262;DHT22;1643;47.746;9.000;2023-04-25T07:03:21;10.30;99.90
3262;DHT22;1643;47.746;9.000;2023-04-25T07:05:47;10.20;99.90
3262;DHT22;1643;47.746;9.000;2023-04-25T07:08:12;10.20;99.90
3262;DHT22;1643;47.746;9.000;2023-04-25T07:10:38;10.10;99.90
3262;DHT22;1643;47.746;9.000;2023-04-25T07:13:04;10.00;99.90
3262;DHT22;1643;47.746;9.000;2023-04-25T07:15:29;9.90;99.90
3262;DHT22;1643;47.746;9.000;2023-04-25T07:17:55;9.90;99.90
3262;DHT22;1643;47.746;9.000;2023-04-25T08:35:57;8.90;99.90
3262;DHT22;1643;47.746;9.000;2023-04-25T08:38:23;8.90;99.90
3262;DHT22;1643;47.746;9.000;2023-04-25T08:40:51;8.90;99.90
3262;DHT22;1643;47.746;9.000;2023-04-25T08:43:19;8.80;99.90
3262;DHT22;1643;47.746;9.000;2023-04-25T08:45:45;8.80;99.90
3262;DHT22;1643;47.746;9.000;2023-04-25T08:48:13;8.80;99.90
3262;DHT22;1643;47.746;9.000;2023-04-25T08:50:53;8.80;99.90
3262;DHT22;1643;47.746;9.000;2023-04-25T08:53:25;8.80;99.90
3262;DHT22;1643;47.746;9.000;2023-04-25T08:55:56;8.80;99.90
3262;DHT22;1643;47.746;9.000;2023-04-25T08:58:22;8.80;99.90
3262;DHT22;1643;47.746;9.000;2023-04-25T09:00:49;8.80;99.90
3262;DHT22;1643;47.746;9.000;2023-04-25T09:03:15;8.90;99.90
3262;DHT22;1643;47.746;9.000;2023-04-25T09:05:42;9.10;99.90
3262;DHT22;1643;47.746;9.000;2023-04-25T09:08:07;9.00;99.90
3262;DHT22;1643;47.746;9.000;2023-04-25T09:10:33;9.10;99.90
3262;DHT22;1643;47.746;9.000;2023-04-25T09:13:12;9.10;99.90
3262;DHT22;1643;47.746;9.000;2023-04-25T09:15:52;9.20;99.90
3262;DHT22;1643;47.746;9.000;2023-04-25T09:18:29;9.20;99.90
3262;DHT22;1643;47.746;9.000;2023-04-25T09:20:57;9.30;99.90
3262;DHT22;1643;47.746;9.000;2023-04-25T09:23:24;9.30;99.90
3262;DHT22;1643;47.746;9.000;2023-04-25T09:25:51;9.30;99.90
3262;DHT22;1643;47.746;9.000;2023-04-25T09:28:23;9.30;99.90
3262;DHT22;1643;47.746;9.000;2023-04-25T09:30:55;9.40;99.90
3262;DHT22;1643;47.746;9.000;2023-04-25T09:33:27;9.40;99.90
3262;DHT22;1643;47.746;9.000;2023-04-25T09:35:54;9.40;99.90
3262;DHT22;1643;47.746;9.000;2023-04-25T09:38:26;9.50;99.90
3262;DHT22;1643;47.746;9.000;2023-04-25T09:40:51;9.50;99.90
3262;DHT22;1643;47.746;9.000;2023-04-25T09:43:21;9.60;99.90
3262;DHT22;1643;47.746;9.000;2023-04-25T09:45:47;9.60;99.90
3262;DHT22;1643;47.746;9.000;2023-04-25T09:48:19;9.60;99.90
3262;DHT22;1643;47.746;9.000;2023-04-25T09:51:03;9.50;99.90
3262;DHT22;1643;47.746;9.000;2023-04-25T09:53:29;9.50;99.90
3262;DHT22;1643;47.746;9.000;2023-04-25T09:55:56;9.70;99.90
3262;DHT22;1643;47.746;9.000;2023-04-25T09:58:25;9.80;99.90
3262;DHT22;1643;47.746;9.000;2023-04-25T10:00:51;9.80;99.90
3262;DHT22;1643;47.746;9.000;2023-04-25T10:03:17;9.90;99.90
3262;DHT22;1643;47.746;9.000;2023-04-25T10:05:43;9.90;99.90
3262;DHT22;1643;47.746;9.000;2023-04-25T10:08:10;9.90;99.90
3262;DHT22;1643;47.746;9.000;2023-04-25T10:10:37;10.00;99.90
3262;DHT22;1643;47.746;9.000;2023-04-25T10:13:05;10.00;99.90
3262;DHT22;1643;47.746;9.000;2023-04-25T10:15:34;10.00;99.90
3262;DHT22;1643;47.746;9.000;2023-04-25T10:18:01;10.00;99.90
3262;DHT22;1643;47.746;9.000;2023-04-25T10:20:26;9.90;99.90
3262;DHT22;1643;47.746;9.000;2023-04-25T10:22:54;9.90;99.90
3262;DHT22;1643;47.746;9.000;2023-04-25T10:25:22;9.90;99.90
3262;DHT22;1643;47.746;9.000;2023-04-25T10:27:51;10.00;99.90
3262;DHT22;1643;47.746;9.000;2023-04-25T10:30:18;10.00;99.90
3262;DHT22;1643;47.746;9.000;2023-04-25T10:32:44;10.00;99.90
3262;DHT22;1643;47.746;9.000;2023-04-25T10:35:18;10.10;99.90
3262;DHT22;1643;47.746;9.000;2023-04-25T10:37:57;10.20;99.90
3262;DHT22;1643;47.746;9.000;2023-04-25T10:40:23;10.30;99.90
3262;DHT22;1643;47.746;9.000;2023-04-25T10:42:49;10.30;99.90
3262;DHT22;1643;47.746;9.000;2023-04-25T10:45:16;10.50;99.90
3262;DHT22;1643;47.746;9.000;2023-04-25T10:47:45;10.80;99.90
3262;DHT22;1643;47.746;9.000;2023-04-25T10:50:11;11.00;99.90
3262;DHT22;1643;47.746;9.000;2023-04-25T10:52:40;11.10;99.90
3262;DHT22;1643;47.746;9.000;2023-04-25T10:55:06;11.20;99.90
3262;DHT22;1643;47.746;9.000;2023-04-25T10:57:44;11.20;99.90
3262;DHT22;1643;47.746;9.000;2023-04-25T11:00:16;11.10;99.90
3262;DHT22;1643;47.746;9.000;2023-04-25T11:02:58;11.00;99.90
3262;DHT22;1643;47.746;9.000;2023-04-25T11:05:32;11.00;99.90
3262;DHT22;1643;47.746;9.000;2023-04-25T11:07:59;11.10;99.90
3262;DHT22;1643;47.746;9.000;2023-04-25T11:10:29;11.00;99.90
3262;DHT22;1643;47.746;9.000;2023-04-25T11:12:56;11.20;99.90
3262;DHT22;1643;47.746;9.000;2023-04-25T11:15:22;11.20;99.90
3262;DHT22;1643;47.746;9.000;2023-04-25T11:17:47;11.10;99.90
3262;DHT22;1643;47.746;9.000;2023-04-25T11:20:13;11.10;99.90
3262;DHT22;1643;47.746;9.000;2023-04-25T11:22:41;11.10;99.90
3262;DHT22;1643;47.746;9.000;2023-04-25T11:25:11;11.50;99.90
3262;DHT22;1643;47.746;9.000;2023-04-25T11:27:39;11.50;99.90
3262;DHT22;1643;47.746;9.000;2023-04-25T11:30:15;11.40;99.90
3262;DHT22;1643;47.746;9.000;2023-04-25T11:32:42;11.20;99.90
3262;DHT22;1643;47.746;9.000;2023-04-25T11:35:09;11.10;99.90
3262;DHT22;1643;47.746;9.000;2023-04-25T11:37:35;11.00;99.90
3262;DHT22;1643;47.746;9.000;2023-04-25T11:40:00;11.00;99.90
3262;DHT22;1643;47.746;9.000;2023-04-25T11:42:27;11.30;99.90
3262;DHT22;1643;47.746;9.000;2023-04-25T11:44:53;12.10;99.90
3262;DHT22;1643;47.746;9.000;2023-04-25T11:47:18;12.20;99.90
3262;DHT22;1643;47.746;9.000;2023-04-25T11:49:44;12.10;99.90
3262;DHT22;1643;47.746;9.000;2023-04-25T11:52:09;12.10;99.90
3262;DHT22;1643;47.746;9.000;2023-04-25T11:54:36;11.90;99.90
3262;DHT22;1643;47.746;9.000;2023-04-25T11:57:03;11.50;99.90
3262;DHT22;1643;47.746;9.000;2023-04-25T11:59:29;11.50;99.90
3262;DHT22;1643;47.746;9.000;2023-04-25T12:01:54;11.40;99.90
3262;DHT22;1643;47.746;9.000;2023-04-25T12:04:24;11.40;99.90
3262;DHT22;1643;47.746;9.000;2023-04-25T12:06:52;11.20;99.90
3262;DHT22;1643;47.746;9.000;2023-04-25T12:09:38;11.20;99.90
3262;DHT22;1643;47.746;9.000;2023-04-25T12:12:05;11.20;99.90
3262;DHT22;1643;47.746;9.000;2023-04-25T12:14:34;11.30;99.90
3262;DHT22;1643;47.746;9.000;2023-04-25T12:17:01;11.40;99.90
3262;DHT22;1643;47.746;9.000;2023-04-25T12:19:35;11.30;99.90
3262;DHT22;1643;47.746;9.000;2023-04-25T12:22:02;11.30;99.90
3262;DHT22;1643;47.746;9.000;2023-04-25T12:24:28;11.40;99.90
3262;DHT22;1643;47.746;9.000;2023-04-25T12:27:05;11.50;99.90
3262;DHT22;1643;47.746;9.000;2023-04-25T12:29:33;11.60;99.90
3262;DHT22;1643;47.746;9.000;2023-04-25T12:31:59;11.60;99.90
3262;DHT22;1643;47.746;9.000;2023-04-25T12:34:28;11.80;99.90
3262;DHT22;1643;47.746;9.000;2023-04-25T12:36:54;11.90;99.90
3262;DHT22;1643;47.746;9.000;2023-04-25T12:39:21;11.80;99.90
3262;DHT22;1643;47.746;9.000;2023-04-25T12:41:48;12.00;99.90
3262;DHT22;1643;47.746;9.000;2023-04-25T12:44:14;12.00;99.90
3262;DHT22;1643;47.746;9.000;2023-04-25T12:46:40;12.00;99.90
3262;DHT22;1643;47.746;9.000;2023-04-25T12:49:07;11.90;99.90
3262;DHT22;1643;47.746;9.000;2023-04-25T12:51:34;12.20;99.90
3262;DHT22;1643;47.746;9.000;2023-04-25T12:54:00;12.50;99.90
3262;DHT22;1643;47.746;9.000;2023-04-25T12:56:27;12.70;99.90
3262;DHT22;1643;47.746;9.000;2023-04-25T12:58:53;12.70;99.90
3262;DHT22;1643;47.746;9.000;2023-04-25T13:01:22;12.80;99.90
3262;DHT22;1643;47.746;9.000;2023-04-25T13:03:48;12.90;99.90
3262;DHT22;1643;47.746;9.000;2023-04-25T13:06:15;13.00;99.90
3262;DHT22;1643;47.746;9.000;2023-04-25T13:08:41;12.90;99.90
3262;DHT22;1643;47.746;9.000;2023-04-25T13:11:07;12.70;99.90
3262;DHT22;1643;47.746;9.000;2023-04-25T13:13:32;12.50;99.90
3262;DHT22;1643;47.746;9.000;2023-04-25T13:16:01;12.40;99.90
3262;DHT22;1643;47.746;9.000;2023-04-25T13:18:28;12.50;99.90
3262;DHT22;1643;47.746;9.000;2023-04-25T13:20:53;12.90;99.90
3262;DHT22;1643;47.746;9.000;2023-04-25T13:23:20;12.90;99.90
3262;DHT22;1643;47.746;9.000;2023-04-25T13:25:46;13.00;99.90
3262;DHT22;1643;47.746;9.000;2023-04-25T13:28:12;13.10;99.90
3262;DHT22;1643;47.746;9.000;2023-04-25T13:30:38;13.30;99.90
3262;DHT22;1643;47.746;9.000;2023-04-25T13:33:03;13.20;99.90
3262;DHT22;1643;47.746;9.000;2023-04-25T13:35:30;13.00;99.90
3262;DHT22;1643;47.746;9.000;2023-04-25T13:37:56;12.90;99.90
3262;DHT22;1643;47.746;9.000;2023-04-25T13:40:22;12.90;99.90
3262;DHT22;1643;47.746;9.000;2023-04-25T13:42:48;13.30;99.90
3262;DHT22;1643;47.746;9.000;2023-04-25T13:45:13;13.60;99.90
3262;DHT22;1643;47.746;9.000;2023-04-25T13:47:39;13.90;99.70
3262;DHT22;1643;47.746;9.000;2023-04-25T13:50:05;13.70;99.80
3262;DHT22;1643;47.746;9.000;2023-04-25T13:52:31;13.40;99.90
3262;DHT22;1643;47.746;9.000;2023-04-25T13:54:57;13.00;99.90
3262;DHT22;1643;47.746;9.000;2023-04-25T13:57:23;12.80;99.90
3262;DHT22;1643;47.746;9.000;2023-04-25T13:59:49;12.80;99.90
3262;DHT22;1643;47.746;9.000;2023-04-25T14:02:15;12.60;99.90
3262;DHT22;1643;47.746;9.000;2023-04-25T14:04:41;12.50;99.90
3262;DHT22;1643;47.746;9.000;2023-04-25T14:07:06;12.40;99.90
3262;DHT22;1643;47.746;9.000;2023-04-25T14:09:32;12.40;99.90
3262;DHT22;1643;47.746;9.000;2023-04-25T14:11:58;12.20;99.90
3262;DHT22;1643;47.746;9.000;2023-04-25T14:14:24;12.20;99.90
3262;DHT22;1643;47.746;9.000;2023-04-25T14:16:50;12.20;99.90
3262;DHT22;1643;47.746;9.000;2023-04-25T14:19:19;12.20;99.90
3262;DHT22;1643;47.746;9.000;2023-04-25T14:21:44;12.00;99.90
3262;DHT22;1643;47.746;9.000;2023-04-25T14:24:11;12.00;99.90
3262;DHT22;1643;47.746;9.000;2023-04-25T14:26:37;12.00;99.90
3262;DHT22;1643;47.746;9.000;2023-04-25T14:29:04;12.00;99.90
3262;DHT22;1643;47.746;9.000;2023-04-25T14:31:31;12.00;99.90
3262;DHT22;1643;47.746;9.000;2023-04-25T14:33:56;11.90;99.90
3262;DHT22;1643;47.746;9.000;2023-04-25T14:36:22;11.90;99.90
3262;DHT22;1643;47.746;9.000;2023-04-25T14:38:48;11.90;99.90
3262;DHT22;1643;47.746;9.000;2023-04-25T14:41:13;11.90;99.90
3262;DHT22;1643;47.746;9.000;2023-04-25T14:43:39;11.80;99.90
3262;DHT22;1643;47.746;9.000;2023-04-25T14:46:06;11.90;99.90
3262;DHT22;1643;47.746;9.000;2023-04-25T14:48:32;11.90;99.90
3262;DHT22;1643;47.746;9.000;2023-04-25T14:50:58;12.30;99.90
3262;DHT22;1643;47.746;9.000;2023-04-25T14:53:25;12.40;99.90
3262;DHT22;1643;47.746;9.000;2023-04-25T14:55:51;12.20;99.90
3262;DHT22;1643;47.746;9.000;2023-04-25T14:58:16;12.20;99.90
3262;DHT22;1643;47.746;9.000;2023-04-25T15:00:42;12.10;99.90
3262;DHT22;1643;47.746;9.000;2023-04-25T15:03:09;12.00;99.90
3262;DHT22;1643;47.746;9.000;2023-04-25T15:05:37;12.20;99.90
3262;DHT22;1643;47.746;9.000;2023-04-25T15:08:02;12.10;99.90
3262;DHT22;1643;47.746;9.000;2023-04-25T15:10:28;12.00;99.90
3262;DHT22;1643;47.746;9.000;2023-04-25T15:12:54;12.30;99.90
3262;DHT22;1643;47.746;9.000;2023-04-25T15:15:20;12.40;99.90
3262;DHT22;1643;47.746;9.000;2023-04-25T15:17:46;12.50;99.90
3262;DHT22;1643;47.746;9.000;2023-04-25T15:20:13;12.70;99.90
3262;DHT22;1643;47.746;9.000;2023-04-25T15:22:40;12.90;99.90
3262;DHT22;1643;47.746;9.000;2023-04-25T15:25:06;13.10;99.90
3262;DHT22;1643;47.746;9.000;2023-04-25T15:27:33;13.30;99.90
3262;DHT22;1643;47.746;9.000;2023-04-25T15:30:04;13.30;99.40
3262;DHT22;1643;47.746;9.000;2023-04-25T15:32:31;13.50;99.00
3262;DHT22;1643;47.746;9.000;2023-04-25T15:34:56;13.30;99.20
3262;DHT22;1643;47.746;9.000;2023-04-25T15:37:22;13.00;99.20
3262;DHT22;1643;47.746;9.000;2023-04-25T15:39:47;12.80;99.30
3262;DHT22;1643;47.746;9.000;2023-04-25T15:42:13;12.60;99.50
3262;DHT22;1643;47.746;9.000;2023-04-25T15:44:39;12.60;99.90
3262;DHT22;1643;47.746;9.000;2023-04-25T15:47:04;12.40;99.90
3262;DHT22;1643;47.746;9.000;2023-04-25T15:49:30;12.30;99.90
3262;DHT22;1643;47.746;9.000;2023-04-25T15:51:55;12.20;99.90
3262;DHT22;1643;47.746;9.000;2023-04-25T15:54:21;12.10;99.90
3262;DHT22;1643;47.746;9.000;2023-04-25T15:56:47;12.10;99.90
3262;DHT22;1643;47.746;9.000;2023-04-25T15:59:13;12.10;99.90
3262;DHT22;1643;47.746;9.000;2023-04-25T16:01:38;12.10;99.90
3262;DHT22;1643;47.746;9.000;2023-04-25T16:04:05;12.10;99.90
3262;DHT22;1643;47.746;9.000;2023-04-25T16:06:30;11.90;99.90
3262;DHT22;1643;47.746;9.000;2023-04-25T16:08:56;11.50;99.90
3262;DHT22;1643;47.746;9.000;2023-04-25T16:11:22;11.30;99.90
3262;DHT22;1643;47.746;9.000;2023-04-25T16:13:48;11.00;99.90
3262;DHT22;1643;47.746;9.000;2023-04-25T16:16:14;10.60;99.90
3262;DHT22;1643;47.746;9.000;2023-04-25T16:18:40;10.50;99.90
3262;DHT22;1643;47.746;9.000;2023-04-25T16:21:06;10.40;99.90
3262;DHT22;1643;47.746;9.000;2023-04-25T16:23:32;10.20;99.90
3262;DHT22;1643;47.746;9.000;2023-04-25T16:25:58;10.00;99.90
3262;DHT22;1643;47.746;9.000;2023-04-25T16:28:23;10.00;99.90
3262;DHT22;1643;47.746;9.000;2023-04-25T16:30:49;9.90;99.90
3262;DHT22;1643;47.746;9.000;2023-04-25T16:33:14;10.00;99.90
3262;DHT22;1643;47.746;9.000;2023-04-25T16:35:40;9.90;99.90
3262;DHT22;1643;47.746;9.000;2023-04-25T16:38:06;10.00;99.90
3262;DHT22;1643;47.746;9.000;2023-04-25T16:40:31;10.00;99.90
3262;DHT22;1643;47.746;9.000;2023-04-25T16:42:57;10.10;99.90
3262;DHT22;1643;47.746;9.000;2023-04-25T16:45:22;10.10;99.90
3262;DHT22;1643;47.746;9.000;2023-04-25T16:47:48;10.10;99.90
3262;DHT22;1643;47.746;9.000;2023-04-25T16:50:14;10.10;99.90
3262;DHT22;1643;47.746;9.000;2023-04-25T16:52:40;10.10;99.90
3262;DHT22;1643;47.746;9.000;2023-04-25T16:55:06;10.00;99.90
3262;DHT22;1643;47.746;9.000;2023-04-25T16:57:34;10.00;99.90
3262;DHT22;1643;47.746;9.000;2023-04-25T17:00:00;10.00;99.90
3262;DHT22;1643;47.746;9.000;2023-04-25T17:02:26;10.10;99.90
3262;DHT22;1643;47.746;9.000;2023-04-25T17:04:52;10.10;99.90
3262;DHT22;1643;47.746;9.000;2023-04-25T17:07:18;10.00;99.90
3262;DHT22;1643;47.746;9.000;2023-04-25T17:09:51;10.10;99.90
3262;DHT22;1643;47.746;9.000;2023-04-25T17:12:17;10.20;99.90
3262;DHT22;1643;47.746;9.000;2023-04-25T17:14:44;10.30;99.90
3262;DHT22;1643;47.746;9.000;2023-04-25T17:17:11;10.50;99.90
3262;DHT22;1643;47.746;9.000;2023-04-25T17:19:37;10.50;99.90